Time;durP1;ratioP1;P1;durP2;ratioP2;P2;SDS_P1;SDS_P2;PMS_P1;PMS_P2;Temp;Humidity;BMP_temperature;BMP_pressure;BME280_temperature;BME280_humidity;BME280_pressure;Samples;Min_cycle;Max_cycle;Signal;HPM_P1;HPM_P2
2021/03/20 00:00:09;;;;;;;2.78;0.88;;;;;;;;;;5018327;28;20607;-52
2021/03/20 00:02:35;;;;;;;1.00;0.90;;;;;;;;;;5007394;28;20279;-52
2021/03/20 00:05:01;;;;;;;1.73;0.98;;;;;;;;;;4998007;28;20214;-52
2021/03/20 00:07:27;;;;;;;2.05;1.13;;;;;;;;;;5000918;28;20560;-52
2021/03/20 00:09:53;;;;;;;0.50;0.50;;;;;;;;;;5009315;28;20188;-52
2021/03/20 00:12:20;;;;;;;1.23;0.93;;;;;;;;;;4998726;28;20184;-52
2021/03/20 00:14:46;;;;;;;2.90;0.80;;;;;;;;;;4998132;28;20216;-52
2021/03/20 00:17:12;;;;;;;1.77;0.57;;;;;;;;;;4998125;28;20200;-52
2021/03/20 00:19:38;;;;;;;1.13;0.88;;;;;;;;;;4998319;28;20166;-52
2021/03/20 00:22:04;;;;;;;0.65;0.65;;;;;;;;;;4998706;28;20196;-52
2021/03/20 00:24:30;;;;;;;0.70;0.70;;;;;;;;;;4997712;28;20463;-52
2021/03/20 00:26:56;;;;;;;0.75;0.75;;;;;;;;;;5002869;28;20196;-52
2021/03/20 00:29:22;;;;;;;0.90;0.63;;;;;;;;;;5013452;28;20873;-52
2021/03/20 00:31:48;;;;;;;1.60;0.82;;;;;;;;;;5006118;28;20195;-52
2021/03/20 00:34:14;;;;;;;0.77;0.77;;;;;;;;;;5013605;28;20205;-52
2021/03/20 00:36:40;;;;;;;0.70;0.70;;;;;;;;;;4997983;28;20518;-52
2021/03/20 00:39:07;;;;;;;0.63;0.60;;;;;;;;;;5007970;28;20187;-52
2021/03/20 00:41:33;;;;;;;1.00;0.70;;;;;;;;;;5015362;28;20173;-52
2021/03/20 00:43:59;;;;;;;0.77;0.77;;;;;;;;;;4998704;28;20541;-52
2021/03/20 00:46:25;;;;;;;0.88;0.80;;;;;;;;;;5016776;28;20183;-52
2021/03/20 00:48:51;;;;;;;2.53;0.80;;;;;;;;;;5003674;28;20271;-52
2021/03/20 00:51:18;;;;;;;0.57;0.57;;;;;;;;;;5017778;28;20250;-52
2021/03/20 00:53:44;;;;;;;1.02;0.70;;;;;;;;;;5017305;28;20208;-52
2021/03/20 00:56:10;;;;;;;0.68;0.60;;;;;;;;;;5016910;28;20290;-52
2021/03/20 00:58:38;;;;;;;0.60;0.60;;;;;;;;;;5026342;28;20198;-52
2021/03/20 01:01:16;;;;;;;0.60;0.60;;;;;;;;;;5023217;28;20184;-52
2021/03/20 01:03:43;;;;;;;0.70;0.70;;;;;;;;;;5034265;28;20266;-52
2021/03/20 01:06:13;;;;;;;0.70;0.70;;;;;;;;;;5036551;28;20176;-52
2021/03/20 01:08:40;;;;;;;1.27;0.75;;;;;;;;;;5037028;28;20199;-52
2021/03/20 01:11:07;;;;;;;1.13;0.75;;;;;;;;;;5036652;28;20614;-52
2021/03/20 01:13:33;;;;;;;0.60;0.60;;;;;;;;;;5027171;28;20234;-52
2021/03/20 01:15:59;;;;;;;0.70;0.70;;;;;;;;;;5018826;28;20264;-52
2021/03/20 01:18:25;;;;;;;0.90;0.65;;;;;;;;;;5034639;28;20207;-52
2021/03/20 01:20:51;;;;;;;0.70;0.60;;;;;;;;;;5036802;28;20190;-52
2021/03/20 01:23:17;;;;;;;1.67;0.77;;;;;;;;;;5036691;28;20188;-52
2021/03/20 01:25:43;;;;;;;0.82;0.80;;;;;;;;;;5036025;28;20176;-52
2021/03/20 01:28:09;;;;;;;0.95;0.65;;;;;;;;;;5030467;28;20191;-52
2021/03/20 01:30:37;;;;;;;0.70;0.70;;;;;;;;;;5029698;28;20184;-52
2021/03/20 01:33:03;;;;;;;1.48;0.90;;;;;;;;;;5016494;28;20239;-52
2021/03/20 01:35:29;;;;;;;0.50;0.50;;;;;;;;;;5046902;28;20203;-51
2021/03/20 01:37:56;;;;;;;1.00;0.85;;;;;;;;;;5054405;28;20213;-51
2021/03/20 01:40:26;;;;;;;0.90;0.73;;;;;;;;;;5023410;28;20180;-52
2021/03/20 01:42:53;;;;;;;0.75;0.75;;;;;;;;;;5036135;28;20200;-52
2021/03/20 01:45:19;;;;;;;1.02;0.65;;;;;;;;;;5033502;28;20171;-52
2021/03/20 01:48:08;;;;;;;0.68;0.68;;;;;;;;;;5033961;28;20184;-52
2021/03/20 01:50:39;;;;;;;1.10;0.60;;;;;;;;;;5018736;28;20234;-52
2021/03/20 01:53:14;;;;;;;1.20;0.70;;;;;;;;;;5016296;28;20432;-52
2021/03/20 01:55:41;;;;;;;0.98;0.70;;;;;;;;;;5015643;28;20207;-52
2021/03/20 01:58:07;;;;;;;0.60;0.60;;;;;;;;;;5016157;28;20183;-52
2021/03/20 02:00:35;;;;;;;0.77;0.73;;;;;;;;;;5017906;28;20179;-52
2021/03/20 02:03:03;;;;;;;0.82;0.70;;;;;;;;;;5027571;28;20204;-52
2021/03/20 02:05:30;;;;;;;0.88;0.55;;;;;;;;;;5015212;28;20191;-52
2021/03/20 02:07:57;;;;;;;0.55;0.50;;;;;;;;;;5019882;28;20500;-52
2021/03/20 02:10:24;;;;;;;1.08;0.60;;;;;;;;;;5035556;28;20172;-52
2021/03/20 02:12:55;;;;;;;0.50;0.50;;;;;;;;;;5026189;28;20188;-52
2021/03/20 02:15:24;;;;;;;1.35;0.60;;;;;;;;;;5029769;28;20208;-52
2021/03/20 02:17:53;;;;;;;1.30;0.82;;;;;;;;;;5025310;28;20172;-52
2021/03/20 02:20:34;;;;;;;0.50;0.50;;;;;;;;;;5022287;28;20446;-52
2021/03/20 02:23:06;;;;;;;0.60;0.60;;;;;;;;;;5035529;28;20425;-52
2021/03/20 02:25:47;;;;;;;0.50;0.50;;;;;;;;;;5032111;28;20192;-52
2021/03/20 02:28:31;;;;;;;0.52;0.50;;;;;;;;;;5034750;28;20194;-52
2021/03/20 02:31:09;;;;;;;0.77;0.60;;;;;;;;;;5035331;28;20176;-52
2021/03/20 02:33:39;;;;;;;0.75;0.70;;;;;;;;;;5035308;28;20600;-52
2021/03/20 02:36:08;;;;;;;0.82;0.70;;;;;;;;;;5037655;28;20184;-52
2021/03/20 02:38:44;;;;;;;0.85;0.70;;;;;;;;;;5033298;28;20703;-52
2021/03/20 02:41:21;;;;;;;0.63;0.55;;;;;;;;;;5034406;28;20278;-52
2021/03/20 02:43:47;;;;;;;1.13;0.70;;;;;;;;;;5032899;28;20598;-52
2021/03/20 02:46:26;;;;;;;0.77;0.70;;;;;;;;;;5015057;28;20200;-52
2021/03/20 02:48:55;;;;;;;1.27;0.65;;;;;;;;;;5015378;28;20192;-52
2021/03/20 02:51:25;;;;;;;0.70;0.60;;;;;;;;;;5015206;28;20184;-52
2021/03/20 02:53:57;;;;;;;0.63;0.63;;;;;;;;;;5033325;28;20196;-52
2021/03/20 02:56:27;;;;;;;0.80;0.60;;;;;;;;;;5034268;28;20183;-52
2021/03/20 02:58:56;;;;;;;0.73;0.73;;;;;;;;;;5016259;28;20268;-52
2021/03/20 03:01:24;;;;;;;0.70;0.70;;;;;;;;;;5015219;28;20541;-52
2021/03/20 03:03:51;;;;;;;0.73;0.70;;;;;;;;;;5015866;28;20184;-52
2021/03/20 03:06:35;;;;;;;1.17;0.68;;;;;;;;;;5034400;28;20547;-52
2021/03/20 03:09:07;;;;;;;1.10;0.65;;;;;;;;;;5017781;28;20270;-52
2021/03/20 03:11:54;;;;;;;0.75;0.73;;;;;;;;;;5026141;28;20194;-52
2021/03/20 03:14:20;;;;;;;0.60;0.60;;;;;;;;;;5033288;28;20196;-52
2021/03/20 03:16:47;;;;;;;0.73;0.60;;;;;;;;;;5034916;28;20255;-52
2021/03/20 03:19:15;;;;;;;0.60;0.60;;;;;;;;;;5035229;28;20462;-52
2021/03/20 03:21:42;;;;;;;0.60;0.60;;;;;;;;;;5029270;28;20187;-52
2021/03/20 03:24:14;;;;;;;0.68;0.60;;;;;;;;;;5031690;28;20192;-52
2021/03/20 03:26:43;;;;;;;0.63;0.50;;;;;;;;;;5021492;28;20647;-52
2021/03/20 03:29:13;;;;;;;0.65;0.60;;;;;;;;;;5018766;28;20184;-52
2021/03/20 03:31:44;;;;;;;0.57;0.52;;;;;;;;;;5018879;28;20222;-52
2021/03/20 03:34:16;;;;;;;0.73;0.57;;;;;;;;;;5020475;28;20198;-52
2021/03/20 03:36:55;;;;;;;0.70;0.63;;;;;;;;;;5022476;28;20172;-52
2021/03/20 03:39:24;;;;;;;0.98;0.55;;;;;;;;;;5021964;28;20199;-52
2021/03/20 03:41:50;;;;;;;0.60;0.60;;;;;;;;;;5018721;28;20180;-52
2021/03/20 03:44:16;;;;;;;1.00;0.68;;;;;;;;;;5020378;28;20238;-52
2021/03/20 03:46:44;;;;;;;0.50;0.50;;;;;;;;;;5038154;28;20201;-52
2021/03/20 03:49:12;;;;;;;0.65;0.65;;;;;;;;;;5028156;28;20599;-52
2021/03/20 03:51:38;;;;;;;0.70;0.65;;;;;;;;;;5018616;28;20176;-52
2021/03/20 03:54:05;;;;;;;0.65;0.60;;;;;;;;;;5017236;28;20235;-52
2021/03/20 03:56:43;;;;;;;1.08;0.65;;;;;;;;;;5018883;28;20192;-52
2021/03/20 03:59:19;;;;;;;0.93;0.80;;;;;;;;;;5018384;28;20490;-52
2021/03/20 04:01:50;;;;;;;0.93;0.60;;;;;;;;;;5021992;28;20238;-52
2021/03/20 04:04:19;;;;;;;0.50;0.50;;;;;;;;;;5033083;28;20321;-52
2021/03/20 04:07:05;;;;;;;0.55;0.55;;;;;;;;;;5019282;28;20222;-52
2021/03/20 04:09:34;;;;;;;1.45;0.70;;;;;;;;;;5007942;28;20326;-52
2021/03/20 04:12:05;;;;;;;0.70;0.70;;;;;;;;;;5019428;28;20271;-52
2021/03/20 04:14:41;;;;;;;1.20;0.77;;;;;;;;;;5017730;28;20227;-52
2021/03/20 04:17:23;;;;;;;0.82;0.60;;;;;;;;;;5032636;28;20229;-52
2021/03/20 04:19:58;;;;;;;1.50;0.70;;;;;;;;;;5037948;28;20168;-51
2021/03/20 04:22:27;;;;;;;0.50;0.50;;;;;;;;;;5037920;28;20176;-52
2021/03/20 04:24:59;;;;;;;1.05;0.90;;;;;;;;;;5028245;28;20184;-52
2021/03/20 04:27:32;;;;;;;0.60;0.52;;;;;;;;;;5025212;28;20282;-52
2021/03/20 04:30:04;;;;;;;0.60;0.60;;;;;;;;;;5037913;28;20168;-52
2021/03/20 04:32:34;;;;;;;0.95;0.70;;;;;;;;;;5037618;28;20172;-52
2021/03/20 04:35:09;;;;;;;0.73;0.70;;;;;;;;;;5031383;28;20204;-52
2021/03/20 04:37:40;;;;;;;0.88;0.85;;;;;;;;;;5017137;28;20177;-52
2021/03/20 04:40:09;;;;;;;1.15;0.70;;;;;;;;;;5035518;28;20172;-52
2021/03/20 04:42:37;;;;;;;0.95;0.63;;;;;;;;;;5031021;28;20459;-52
2021/03/20 04:45:06;;;;;;;0.70;0.70;;;;;;;;;;5029225;28;20192;-52
2021/03/20 04:47:34;;;;;;;0.70;0.70;;;;;;;;;;5017799;28;20177;-52
2021/03/20 04:50:03;;;;;;;0.60;0.60;;;;;;;;;;5028614;28;20196;-52
2021/03/20 04:52:31;;;;;;;0.88;0.77;;;;;;;;;;5029441;28;20189;-52
2021/03/20 04:54:58;;;;;;;0.55;0.55;;;;;;;;;;5017009;28;20196;-52
2021/03/20 04:57:28;;;;;;;0.60;0.60;;;;;;;;;;5018530;28;20177;-52
2021/03/20 04:59:54;;;;;;;0.82;0.82;;;;;;;;;;5017738;28;20670;-52
2021/03/20 05:02:27;;;;;;;0.60;0.60;;;;;;;;;;5017445;28;20247;-52
2021/03/20 05:04:56;;;;;;;0.73;0.73;;;;;;;;;;5016542;28;20520;-52
2021/03/20 05:07:23;;;;;;;0.90;0.90;;;;;;;;;;5034265;28;20187;-52
2021/03/20 05:09:56;;;;;;;1.00;0.90;;;;;;;;;;5027210;28;20271;-52
2021/03/20 05:12:26;;;;;;;0.93;0.90;;;;;;;;;;5018299;28;20572;-52
2021/03/20 05:15:03;;;;;;;1.67;0.90;;;;;;;;;;5016558;28;20226;-52
2021/03/20 05:17:29;;;;;;;1.63;1.10;;;;;;;;;;5017024;28;20563;-52
2021/03/20 05:19:55;;;;;;;0.70;0.70;;;;;;;;;;5025700;28;20187;-52
2021/03/20 05:22:26;;;;;;;0.80;0.80;;;;;;;;;;5018293;28;20185;-52
2021/03/20 05:24:53;;;;;;;1.10;1.00;;;;;;;;;;5016233;28;20177;-52
2021/03/20 05:27:21;;;;;;;0.77;0.77;;;;;;;;;;5027724;28;20271;-52
2021/03/20 05:29:47;;;;;;;1.10;1.00;;;;;;;;;;5034283;28;20588;-52
2021/03/20 05:32:14;;;;;;;2.00;0.90;;;;;;;;;;5036497;28;20222;-52
2021/03/20 05:34:42;;;;;;;0.70;0.70;;;;;;;;;;5031195;28;20623;-52
2021/03/20 05:37:10;;;;;;;0.90;0.90;;;;;;;;;;5026074;28;20176;-52
2021/03/20 05:39:36;;;;;;;0.75;0.70;;;;;;;;;;5016867;28;20180;-52
2021/03/20 05:42:02;;;;;;;0.85;0.85;;;;;;;;;;5016332;28;20169;-52
2021/03/20 05:44:46;;;;;;;1.10;1.00;;;;;;;;;;5016726;28;20191;-52
2021/03/20 05:47:12;;;;;;;0.80;0.80;;;;;;;;;;5025082;28;20188;-52
2021/03/20 05:49:53;;;;;;;1.10;1.00;;;;;;;;;;5027750;28;20196;-52
2021/03/20 05:52:38;;;;;;;0.95;0.95;;;;;;;;;;5016443;28;20180;-52
2021/03/20 05:55:13;;;;;;;1.33;1.02;;;;;;;;;;5015505;28;20196;-52
2021/03/20 05:57:48;;;;;;;1.35;1.10;;;;;;;;;;5026676;28;20179;-52
2021/03/20 06:00:20;;;;;;;1.67;0.98;;;;;;;;;;5035007;28;20175;-52
2021/03/20 06:03:05;;;;;;;0.70;0.70;;;;;;;;;;5035326;28;20180;-52
2021/03/20 06:05:31;;;;;;;0.85;0.80;;;;;;;;;;5024902;28;20235;-52
2021/03/20 06:08:07;;;;;;;0.82;0.82;;;;;;;;;;5035440;28;20594;-52
2021/03/20 06:10:53;;;;;;;1.10;0.90;;;;;;;;;;5022145;28;20195;-52
2021/03/20 06:13:31;;;;;;;2.67;1.02;;;;;;;;;;5016011;28;20179;-52
2021/03/20 06:16:02;;;;;;;1.17;1.08;;;;;;;;;;5015160;28;20604;-52
2021/03/20 06:18:44;;;;;;;1.08;0.98;;;;;;;;;;5015799;28;20173;-52
2021/03/20 06:21:16;;;;;;;1.20;0.90;;;;;;;;;;5034602;28;20187;-52
2021/03/20 06:23:43;;;;;;;1.17;1.08;;;;;;;;;;5022408;28;20177;-52
2021/03/20 06:26:21;;;;;;;0.80;0.80;;;;;;;;;;5022821;28;20172;-52
2021/03/20 06:29:01;;;;;;;0.98;0.90;;;;;;;;;;5035374;28;20168;-52
2021/03/20 06:31:27;;;;;;;0.88;0.88;;;;;;;;;;5026239;28;20186;-52
2021/03/20 06:33:55;;;;;;;1.10;1.00;;;;;;;;;;5033855;28;20617;-52
2021/03/20 06:36:34;;;;;;;0.90;0.90;;;;;;;;;;5036982;28;20187;-52
2021/03/20 06:39:13;;;;;;;1.00;1.00;;;;;;;;;;5034298;28;20180;-52
2021/03/20 06:41:57;;;;;;;1.25;1.02;;;;;;;;;;5026313;28;20457;-52
2021/03/20 06:44:40;;;;;;;1.23;1.00;;;;;;;;;;5034712;28;20167;-52
2021/03/20 06:47:26;;;;;;;1.48;1.23;;;;;;;;;;5034868;28;20184;-52
2021/03/20 06:49:52;;;;;;;1.02;1.00;;;;;;;;;;5032331;28;20227;-52
2021/03/20 06:52:20;;;;;;;2.58;1.10;;;;;;;;;;5034535;28;20231;-52
2021/03/20 06:54:53;;;;;;;0.95;0.95;;;;;;;;;;5016122;28;20505;-52
2021/03/20 06:57:19;;;;;;;1.08;1.00;;;;;;;;;;5015139;28;20176;-52
2021/03/20 06:59:44;;;;;;;2.33;1.05;;;;;;;;;;5015258;28;20450;-52
2021/03/20 07:02:21;;;;;;;0.98;0.85;;;;;;;;;;5019662;28;20211;-52
2021/03/20 07:04:51;;;;;;;1.60;0.90;;;;;;;;;;5020233;28;20262;-52
2021/03/20 07:07:35;;;;;;;1.00;1.00;;;;;;;;;;5030924;28;20649;-52
2021/03/20 07:10:05;;;;;;;1.90;1.30;;;;;;;;;;5039221;28;20225;-51
2021/03/20 07:12:31;;;;;;;5.72;1.40;;;;;;;;;;5032440;28;20209;-51
2021/03/20 07:14:58;;;;;;;3.83;1.15;;;;;;;;;;5038290;28;20249;-51
2021/03/20 07:17:25;;;;;;;5.93;1.58;;;;;;;;;;5038990;28;20231;-51
2021/03/20 07:19:59;;;;;;;2.88;1.00;;;;;;;;;;5024981;28;20874;-51
2021/03/20 07:22:33;;;;;;;2.85;1.20;;;;;;;;;;5036385;28;20186;-51
2021/03/20 07:25:00;;;;;;;2.00;1.23;;;;;;;;;;5020039;28;20180;-51
2021/03/20 07:27:31;;;;;;;4.78;1.58;;;;;;;;;;5038053;28;20286;-51
2021/03/20 07:29:59;;;;;;;2.63;1.60;;;;;;;;;;5034672;28;20185;-51
2021/03/20 07:32:25;;;;;;;2.05;1.27;;;;;;;;;;5019063;28;20189;-51
2021/03/20 07:34:52;;;;;;;1.83;1.40;;;;;;;;;;5034390;28;20202;-51
2021/03/20 07:37:21;;;;;;;2.58;1.45;;;;;;;;;;5037880;28;20505;-51
2021/03/20 07:39:48;;;;;;;3.90;1.60;;;;;;;;;;5029370;28;20179;-51
2021/03/20 07:42:23;;;;;;;7.72;1.40;;;;;;;;;;5034741;28;20172;-51
2021/03/20 07:45:16;;;;;;;3.33;1.48;;;;;;;;;;5037976;28;20176;-51
2021/03/20 07:47:42;;;;;;;3.40;1.60;;;;;;;;;;5008181;28;20688;-51
2021/03/20 07:50:20;;;;;;;4.40;1.38;;;;;;;;;;5024907;28;20629;-51
2021/03/20 07:52:47;;;;;;;3.55;1.08;;;;;;;;;;5018649;28;20470;-49
2021/03/20 07:55:23;;;;;;;2.30;1.45;;;;;;;;;;5018751;28;20506;-49
2021/03/20 07:58:00;;;;;;;3.47;1.73;;;;;;;;;;5029033;28;20211;-51
2021/03/20 08:00:29;;;;;;;5.82;1.65;;;;;;;;;;5036509;28;20424;-49
2021/03/20 08:03:03;;;;;;;2.15;1.38;;;;;;;;;;5037212;28;20435;-48
2021/03/20 08:05:32;;;;;;;3.97;1.20;;;;;;;;;;5036897;28;20240;-50
2021/03/20 08:08:08;;;;;;;2.10;1.48;;;;;;;;;;5030311;28;20260;-50
2021/03/20 08:10:35;;;;;;;2.08;1.38;;;;;;;;;;5017491;28;20215;-50
2021/03/20 08:13:16;;;;;;;2.55;1.52;;;;;;;;;;5016856;28;20188;-50
2021/03/20 08:15:44;;;;;;;6.78;1.80;;;;;;;;;;5024062;28;20525;-50
2021/03/20 08:18:17;;;;;;;9.68;2.20;;;;;;;;;;5031255;28;20211;-50
2021/03/20 08:20:44;;;;;;;4.90;2.00;;;;;;;;;;5016087;28;20739;-50
2021/03/20 08:23:28;;;;;;;7.40;1.95;;;;;;;;;;5016250;28;20168;-50
2021/03/20 08:26:17;;;;;;;5.25;2.00;;;;;;;;;;5036438;28;20480;-50
2021/03/20 08:28:48;;;;;;;4.85;1.60;;;;;;;;;;5036733;28;20308;-51
2021/03/20 08:31:21;;;;;;;3.83;1.23;;;;;;;;;;5024810;28;20267;-50
2021/03/20 08:33:57;;;;;;;3.45;1.60;;;;;;;;;;5036549;28;20183;-50
2021/03/20 08:36:26;;;;;;;5.47;1.60;;;;;;;;;;5016502;28;20181;-50
2021/03/20 08:39:00;;;;;;;2.70;1.60;;;;;;;;;;5017120;28;20588;-50
2021/03/20 08:41:33;;;;;;;5.70;1.70;;;;;;;;;;5034835;28;20183;-50
2021/03/20 08:44:14;;;;;;;4.18;1.73;;;;;;;;;;5036484;28;20171;-50
2021/03/20 08:46:59;;;;;;;2.90;1.33;;;;;;;;;;5035240;28;20168;-50
2021/03/20 08:49:25;;;;;;;4.20;1.40;;;;;;;;;;5033917;28;20195;-50
2021/03/20 08:51:53;;;;;;;5.07;1.70;;;;;;;;;;5025185;28;20195;-50
2021/03/20 08:54:25;;;;;;;3.58;1.75;;;;;;;;;;5035779;28;20325;-50
2021/03/20 08:57:11;;;;;;;4.55;1.80;;;;;;;;;;5036509;28;20180;-50
2021/03/20 08:59:45;;;;;;;2.42;1.63;;;;;;;;;;5036315;28;20199;-50
2021/03/20 09:02:23;;;;;;;3.78;1.50;;;;;;;;;;5036009;28;20563;-49
2021/03/20 09:04:52;;;;;;;3.60;1.77;;;;;;;;;;5028427;28;20176;-50
2021/03/20 09:07:23;;;;;;;3.88;2.03;;;;;;;;;;5032243;28;20263;-50
2021/03/20 09:09:52;;;;;;;2.42;1.52;;;;;;;;;;5036020;28;20597;-50
2021/03/20 09:12:21;;;;;;;2.70;1.50;;;;;;;;;;5034712;28;20287;-50
2021/03/20 09:14:48;;;;;;;2.90;1.30;;;;;;;;;;5021050;28;20487;-50
2021/03/20 09:17:19;;;;;;;1.60;1.33;;;;;;;;;;5034820;28;20191;-50
2021/03/20 09:19:55;;;;;;;2.70;1.52;;;;;;;;;;5034192;28;20179;-50
2021/03/20 09:22:25;;;;;;;2.78;1.85;;;;;;;;;;5035892;28;20732;-50
2021/03/20 09:24:53;;;;;;;2.47;1.30;;;;;;;;;;5034297;28;20187;-50
2021/03/20 09:27:38;;;;;;;2.47;1.20;;;;;;;;;;5034707;28;20292;-50
2021/03/20 09:30:33;;;;;;;2.38;1.55;;;;;;;;;;5035726;28;20171;-50
2021/03/20 09:33:01;;;;;;;2.63;1.65;;;;;;;;;;4965568;28;20253;-50
2021/03/20 09:35:38;;;;;;;1.80;1.50;;;;;;;;;;5044820;28;20230;-50
2021/03/20 09:38:04;;;;;;;1.77;1.40;;;;;;;;;;5020608;28;20207;-50
2021/03/20 09:40:38;;;;;;;4.03;1.60;;;;;;;;;;5020379;28;20208;-50
2021/03/20 09:43:40;;;;;;;3.88;1.42;;;;;;;;;;5019133;28;20187;-50
2021/03/20 09:46:24;;;;;;;5.95;1.30;;;;;;;;;;4961945;28;20182;-50
2021/03/20 09:48:50;;;;;;;24.10;5.97;;;;;;;;;;5025906;28;20202;-50
2021/03/20 09:51:35;;;;;;;52.78;12.07;;;;;;;;;;5026031;28;20267;-50
2021/03/20 09:54:20;;;;;;;87.82;18.50;;;;;;;;;;5033317;28;20305;-50
2021/03/20 09:56:46;;;;;;;109.22;23.27;;;;;;;;;;5015487;28;20189;-50
2021/03/20 09:59:35;;;;;;;75.97;19.02;;;;;;;;;;5016993;28;20195;-51
2021/03/20 10:02:02;;;;;;;59.30;14.25;;;;;;;;;;5027983;28;20233;-51
2021/03/20 10:04:37;;;;;;;47.60;11.70;;;;;;;;;;5023570;28;20181;-50
2021/03/20 10:07:12;;;;;;;44.05;11.60;;;;;;;;;;5026567;28;20524;-50
2021/03/20 10:09:57;;;;;;;42.65;11.93;;;;;;;;;;5014962;28;20263;-50
2021/03/20 10:12:25;;;;;;;90.75;22.80;;;;;;;;;;5030854;28;20179;-50
2021/03/20 10:15:02;;;;;;;99.75;23.58;;;;;;;;;;5027704;28;20515;-50
2021/03/20 10:17:31;;;;;;;86.40;22.52;;;;;;;;;;5033168;28;20195;-50
2021/03/20 10:20:12;;;;;;;71.10;20.90;;;;;;;;;;5020950;28;20184;-50
2021/03/20 10:22:47;;;;;;;76.60;18.98;;;;;;;;;;5016027;28;20206;-50
2021/03/20 10:25:14;;;;;;;68.03;18.73;;;;;;;;;;5014268;28;20199;-50
2021/03/20 10:27:42;;;;;;;59.13;18.02;;;;;;;;;;5015184;28;20503;-50
2021/03/20 10:30:16;;;;;;;68.00;17.98;;;;;;;;;;5034242;28;20202;-50
2021/03/20 10:32:55;;;;;;;78.93;17.17;;;;;;;;;;5031205;28;20234;-51
2021/03/20 10:35:21;;;;;;;60.08;16.42;;;;;;;;;;5046068;28;20213;-49
2021/03/20 10:37:47;;;;;;;49.88;16.63;;;;;;;;;;5043969;28;20191;-50
2021/03/20 10:40:14;;;;;;;53.28;16.02;;;;;;;;;;5033279;28;20200;-50
2021/03/20 10:42:42;;;;;;;57.10;15.80;;;;;;;;;;5027396;28;20226;-50
2021/03/20 10:45:26;;;;;;;47.35;15.40;;;;;;;;;;5017170;28;20198;-49
2021/03/20 10:47:58;;;;;;;45.30;14.48;;;;;;;;;;5019958;28;20514;-49
2021/03/20 10:50:35;;;;;;;55.25;15.55;;;;;;;;;;5029155;28;20204;-50
2021/03/20 10:53:02;;;;;;;37.10;13.25;;;;;;;;;;5031777;28;20215;-49
2021/03/20 10:55:49;;;;;;;47.03;14.05;;;;;;;;;;5016890;28;20212;-49
2021/03/20 10:58:17;;;;;;;40.78;13.07;;;;;;;;;;5023886;28;20219;-49
2021/03/20 11:00:47;;;;;;;45.75;13.55;;;;;;;;;;5019557;28;20198;-49
2021/03/20 11:03:26;;;;;;;40.70;13.25;;;;;;;;;;5022930;28;20506;-49
2021/03/20 11:05:53;;;;;;;43.00;13.05;;;;;;;;;;5026571;28;20226;-49
2021/03/20 11:08:25;;;;;;;38.53;12.45;;;;;;;;;;5028534;28;20597;-49
2021/03/20 11:10:54;;;;;;;40.03;12.65;;;;;;;;;;5026357;28;20188;-50
2021/03/20 11:13:19;;;;;;;36.38;11.70;;;;;;;;;;5022499;28;20188;-49
2021/03/20 11:15:47;;;;;;;32.53;10.63;;;;;;;;;;5025559;28;20207;-49
2021/03/20 11:18:30;;;;;;;39.17;17.25;;;;;;;;;;5021710;28;20180;-50
2021/03/20 11:20:56;;;;;;;73.00;35.55;;;;;;;;;;5028547;28;20176;-49
2021/03/20 11:23:33;;;;;;;74.63;42.47;;;;;;;;;;5017925;28;20453;-49
2021/03/20 11:26:11;;;;;;;86.68;42.72;;;;;;;;;;5022490;28;20192;-48
2021/03/20 11:28:37;;;;;;;82.85;42.05;;;;;;;;;;5024378;28;20209;-50
2021/03/20 11:31:04;;;;;;;84.85;40.50;;;;;;;;;;5021169;28;20192;-49
2021/03/20 11:33:32;;;;;;;74.47;39.40;;;;;;;;;;5028535;28;20185;-48
2021/03/20 11:36:00;;;;;;;67.18;38.20;;;;;;;;;;5025187;28;20235;-49
2021/03/20 11:38:27;;;;;;;70.38;36.17;;;;;;;;;;5013142;28;20556;-49
2021/03/20 11:41:02;;;;;;;70.10;37.15;;;;;;;;;;5015918;28;20208;-48
2021/03/20 11:43:35;;;;;;;68.47;33.53;;;;;;;;;;5032429;28;20210;-49
2021/03/20 11:46:11;;;;;;;57.13;32.05;;;;;;;;;;5023085;28;20595;-49
2021/03/20 11:48:37;;;;;;;60.45;33.15;;;;;;;;;;5029484;28;20195;-49
2021/03/20 11:51:06;;;;;;;51.90;29.05;;;;;;;;;;5037264;28;20330;-49
2021/03/20 11:53:34;;;;;;;53.08;29.33;;;;;;;;;;5033240;28;20200;-49
2021/03/20 11:56:01;;;;;;;49.05;27.55;;;;;;;;;;5017849;28;20204;-49
2021/03/20 11:58:27;;;;;;;43.58;23.75;;;;;;;;;;5031107;28;20456;-49
2021/03/20 12:00:53;;;;;;;40.65;23.08;;;;;;;;;;5036606;28;20266;-49
2021/03/20 12:03:22;;;;;;;41.50;22.67;;;;;;;;;;5037067;28;20172;-49
2021/03/20 12:05:51;;;;;;;38.90;21.30;;;;;;;;;;5029283;28;20247;-49
2021/03/20 12:08:36;;;;;;;39.83;20.70;;;;;;;;;;5024312;28;20198;-47
2021/03/20 12:11:06;;;;;;;34.65;19.65;;;;;;;;;;5028476;28;20240;-49
2021/03/20 12:13:40;;;;;;;33.10;19.10;;;;;;;;;;5022850;28;20192;-49
2021/03/20 12:16:06;;;;;;;36.95;20.70;;;;;;;;;;5029077;28;20704;-49
2021/03/20 12:18:33;;;;;;;37.97;20.75;;;;;;;;;;5036860;28;20591;-50
2021/03/20 12:21:06;;;;;;;36.85;20.63;;;;;;;;;;5035779;28;20227;-49
2021/03/20 12:23:33;;;;;;;35.97;20.65;;;;;;;;;;5017437;28;20188;-49
2021/03/20 12:26:00;;;;;;;33.38;18.27;;;;;;;;;;5016532;28;20184;-49
2021/03/20 12:28:34;;;;;;;31.13;18.33;;;;;;;;;;5016888;28;20251;-48
2021/03/20 12:31:17;;;;;;;32.38;17.88;;;;;;;;;;5019062;28;20500;-49
2021/03/20 12:34:06;;;;;;;31.58;16.70;;;;;;;;;;5025496;28;20263;-49
2021/03/20 12:36:32;;;;;;;30.77;16.10;;;;;;;;;;4997819;28;20216;-49
2021/03/20 12:38:58;;;;;;;27.13;16.40;;;;;;;;;;5016497;28;20189;-48
2021/03/20 12:41:25;;;;;;;25.48;14.68;;;;;;;;;;5016975;28;20595;-49
2021/03/20 12:44:08;;;;;;;27.05;15.68;;;;;;;;;;5020473;28;20553;-50
2021/03/20 12:46:36;;;;;;;25.33;14.15;;;;;;;;;;5034946;28;20203;-49
2021/03/20 12:49:02;;;;;;;23.92;12.20;;;;;;;;;;5030407;28;20192;-49
2021/03/20 12:51:28;;;;;;;21.50;12.80;;;;;;;;;;5033584;28;20195;-49
2021/03/20 12:53:54;;;;;;;21.50;12.60;;;;;;;;;;5034866;28;20187;-49
2021/03/20 12:56:20;;;;;;;19.13;11.27;;;;;;;;;;5035746;28;20176;-49
2021/03/20 12:58:46;;;;;;;21.80;12.18;;;;;;;;;;5036320;28;20180;-49
2021/03/20 13:01:12;;;;;;;17.02;10.98;;;;;;;;;;5036354;28;20306;-49
2021/03/20 13:03:38;;;;;;;16.90;10.27;;;;;;;;;;5030754;28;20284;-49
2021/03/20 13:06:05;;;;;;;16.05;9.90;;;;;;;;;;5022664;28;20283;-49
2021/03/20 13:08:34;;;;;;;16.65;9.45;;;;;;;;;;5032752;28;20245;-50
2021/03/20 13:11:00;;;;;;;19.90;10.18;;;;;;;;;;5036176;28;20450;-50
2021/03/20 13:13:26;;;;;;;16.73;9.05;;;;;;;;;;5032741;28;20227;-50
2021/03/20 13:15:52;;;;;;;13.93;8.68;;;;;;;;;;5023039;28;20212;-50
2021/03/20 13:18:18;;;;;;;16.30;8.00;;;;;;;;;;5029766;28;20184;-50
2021/03/20 13:20:44;;;;;;;17.33;8.70;;;;;;;;;;5035193;28;20226;-50
2021/03/20 13:23:10;;;;;;;17.92;9.75;;;;;;;;;;5035625;28;20229;-50
2021/03/20 13:25:37;;;;;;;18.17;9.63;;;;;;;;;;5034131;28;20180;-50
2021/03/20 13:28:04;;;;;;;16.42;8.48;;;;;;;;;;5032057;28;20195;-50
2021/03/20 13:30:32;;;;;;;17.55;9.13;;;;;;;;;;5033474;28;20263;-50
2021/03/20 13:32:58;;;;;;;14.35;7.95;;;;;;;;;;5016724;28;20181;-49
2021/03/20 13:35:25;;;;;;;17.98;8.02;;;;;;;;;;5032714;28;20621;-50
2021/03/20 13:37:52;;;;;;;16.20;8.02;;;;;;;;;;5034257;28;20270;-50
2021/03/20 13:40:19;;;;;;;15.10;7.82;;;;;;;;;;5021937;28;20181;-50
2021/03/20 13:42:45;;;;;;;13.95;7.55;;;;;;;;;;5015482;28;20208;-50
2021/03/20 13:45:12;;;;;;;13.07;6.75;;;;;;;;;;5025488;28;20223;-50
2021/03/20 13:47:38;;;;;;;13.52;6.70;;;;;;;;;;5035075;28;20502;-50
2021/03/20 13:50:05;;;;;;;13.23;6.60;;;;;;;;;;5027228;28;20196;-50
2021/03/20 13:52:31;;;;;;;12.18;6.60;;;;;;;;;;5015397;28;20188;-49
2021/03/20 13:54:57;;;;;;;16.77;7.05;;;;;;;;;;5014617;28;20200;-51
2021/03/20 13:57:23;;;;;;;10.40;5.68;;;;;;;;;;5015446;28;20177;-49
2021/03/20 13:59:49;;;;;;;10.18;5.97;;;;;;;;;;5033616;28;20223;-50
2021/03/20 14:02:16;;;;;;;12.35;6.35;;;;;;;;;;5025666;28;20258;-49
2021/03/20 14:04:46;;;;;;;10.55;5.60;;;;;;;;;;5014476;28;20176;-49
2021/03/20 14:07:25;;;;;;;9.70;5.65;;;;;;;;;;5015127;28;20180;-49
2021/03/20 14:09:51;;;;;;;10.23;5.65;;;;;;;;;;5015334;28;20463;-50
2021/03/20 14:12:17;;;;;;;10.45;5.15;;;;;;;;;;5017202;28;20184;-50
2021/03/20 14:14:46;;;;;;;9.65;5.30;;;;;;;;;;5024026;28;20223;-49
2021/03/20 14:17:12;;;;;;;10.93;5.03;;;;;;;;;;5014959;28;20455;-49
2021/03/20 14:19:38;;;;;;;9.50;5.03;;;;;;;;;;5017778;28;20176;-48
2021/03/20 14:22:05;;;;;;;11.32;5.55;;;;;;;;;;5034747;28;20567;-49
2021/03/20 14:24:31;;;;;;;8.57;4.75;;;;;;;;;;5034075;28;20198;-48
2021/03/20 14:26:58;;;;;;;7.78;4.93;;;;;;;;;;5018521;28;20215;-50
2021/03/20 14:29:24;;;;;;;10.55;4.43;;;;;;;;;;5025964;28;20275;-49
2021/03/20 14:31:50;;;;;;;7.88;4.60;;;;;;;;;;5023198;28;20184;-49
2021/03/20 14:34:16;;;;;;;9.77;4.85;;;;;;;;;;5024687;28;20210;-49
2021/03/20 14:36:44;;;;;;;6.38;4.03;;;;;;;;;;5032646;28;20246;-50
2021/03/20 14:39:10;;;;;;;8.10;4.40;;;;;;;;;;5020024;28;20184;-49
2021/03/20 14:41:36;;;;;;;6.82;4.05;;;;;;;;;;5021566;28;20194;-49
2021/03/20 14:44:02;;;;;;;7.07;3.88;;;;;;;;;;5016031;28;20222;-49
2021/03/20 14:46:28;;;;;;;8.23;4.07;;;;;;;;;;5020899;28;20558;-49
2021/03/20 14:48:54;;;;;;;6.82;4.32;;;;;;;;;;5033703;28;20210;-49
2021/03/20 14:51:20;;;;;;;7.22;4.00;;;;;;;;;;5034066;28;20833;-50
2021/03/20 14:53:48;;;;;;;6.35;3.65;;;;;;;;;;5033642;28;20485;-49
2021/03/20 14:56:14;;;;;;;7.65;4.18;;;;;;;;;;5033637;28;20206;-50